Terminal Aerodrome Forecast
Issued by NWS

Home | Current Version | Previous Version | Text Only | Print | Product List | Glossary On
Versions: 1 2 3 4 5 6 7 8 9 10 11 12 13 14 15 16
000
FTUS41 KBTV 220536
TAFSLK
TAF
KSLK 220536Z 2206/2306 00000KT P6SM OVC080
     FM221800 08005KT P6SM VCSH OVC025
     FM222000 09007KT 1 1/2SM -SNPL BR OVC025
     FM222300 11009KT 3/4SM -FZRA BR OVC010
     FM230200 14008KT 1SM -FZRA BR OVC008
     FM230400 17009KT P6SM -RA OVC025=

USA.gov is the U.S. government's official web portal to all federal, state and local government web resources and services.